Hurlburt Field Mary Esther US
ICAO: KHRT
IATA: HRT
Category: Medium
Scheduled Services: No

Elevation: 38 ft
TransAlt. 18000 ft.

Airport Communications:
EGLIN APP:37.915
EGLIN APP:133
ATIS:36.067
EGLIN DEP:132.1
GND:123.975
PMSV METRO:39.075
COMD POST:140.4
PTD:37.22
TWR:126.5

KHRT Zoom In..

If you have problems with the map follow the link
https://www.worldairports.se/pages/airport.php?
ICAO=KHRT

Runways:

(A) RW 18 length 9600 ft width 150 ft
---- / hdg 178

(B) RW 36 length 9600 ft width 150 ft
ILS 111.30 / hdg 358

Location; KHRT
Day. 23 / Time. 17.30 Zulu
* Altimeter: 30.14
* Temperature: 22° c. 71.6°f.
* Wind from: 070° Speed 06 kn.
Dewpoint: 16° c.
Visibility: 10 Statute Miles.
Clouds: Few 2700 ft.
Clouds: Broken 13000 ft.
Conditions: Light Rain.

KHRT 231730Z 07006KT 10SM -RA FEW027 BKN130 22/16 A3014 RMK AO2A SLP209 $


Wind From 070°
Speed 06 kn.

 
 
jpsmedia.com for Web Design worldairports.se 2018   terms of use